Main page
METAR-TAF:

METAR-TAF

Airports :

Tafraoui, Algeria

Oran Tafraoui Airport

latitude: 35-32-33N, longitude: 000-31-56W, elevation: 112 m

Current weather observation

The report was made 2 hours and 9 minutes ago, at 00:00 UTC
Wind 18 kt from the West
Temperature 20°C
Humidity 100%
Pressure 1016 hPa
Visibility 10 km or more
Scattered clouds at a height of 3000 ft

METAR: DAOL 290000Z 26018KT 9999 SCT030 20/20 Q1016

Time: 03:09 (02:09 UTC)


TAF: missing

Weather observations and forecasts of more than 4000 airports (METAR and TAF reports).

The available stations are represented by yellow and red dots on the map.

Hover mouse over dot to see the name of the station.

Then click to see weather observations and forecasts.

To change the map : click on the green buttons with a black cross to zoom in, on the green button with a dash to zoom out, or on the green arrows for adjacent maps.


METAR-TAF: